首页
METAR-TAF:

METAR-TAF

机场 :

摩爾曼斯克, 俄罗斯

纬度: 68-58N, 经度: 033-03E, 海拔: 51米

当前天气观测

该预报发布于39分钟前的13:00 UTC
风速8节,风向西,有时为19节阵风
温度 -1°C
湿度 93%
气压 956 hPa
能見度: 1700
散云层高于600英尺
多云层高于1500英尺, 积雨云.
阵雪

METAR: ULMM 171300Z 26004G10MPS 1700 R13/1700D SHSN SCT006 BKN015CB M01/M02 Q0956 R13/690152 NOSIG RMK OBST OBSC QFE710

时间: 16:39 (13:39 UTC)

预报

该预报发布于2小时和49分钟前的10:50 UTC
预报有效从17日的 12点(UTC)到 18日的 12点(UTC)
风速12节,风向西转西南,有时为23节阵风
能見度: 3100
多云层高于1100英尺, 积雨云.
小阵雪, 高吹雪
短暂存在
从 17日的 12点(UTC)到 17日的 15点(UTC)
风速14节,风向西,有时为29节阵风
能見度: 1600
层高于800英尺
阵雪, 高吹雪
短暂存在
从 17日的 15点(UTC)到 18日的 06点(UTC)
风速17节,风向西,有时为33节阵风
从 18日的 0600点(UTC)
风速6节,风向西转西南,有时为16节阵风
能见度10公里或以上
多云层高于1100英尺
短暂存在
从 18日的 06点(UTC)到 18日的 12点(UTC)
风速6节,风向西转西北,有时为16节阵风
能見度: 3100
多云层高于1100英尺, 积雨云.
小阵雪

TAF: ULMM 171050Z 1712/1812 25006G12MPS 3100 -SHSN BLSN BKN011CB TEMPO 1712/1715 27007G15MPS 1600 SHSN BLSN VV008 TEMPO 1715/1806 27009G17MPS FM180600 25003G08MPS 9999 BKN011 TEMPO 1806/1812 29003G08MPS 3100 -SHSN BKN011CB

超过4000个机场的气象观测和天气预报(METAR&TAF报告)。

可查询的气象台以黄色和红色小点在地图上表示。

将鼠标移到小点上方,可查看气象台名称。

然后点击查看天气观测和预报。

如需切换地图:点击带黑十字的绿色按钮放大地图;点击带横线的绿色按钮缩小地图;或者点击绿色箭头查看邻近地区的地图。


METAR-TAF: